sensor_id;sensor_type;location;lat;lon;timestamp;pressure;altitude;pressure_sealevel;temperature;humidity
58018;BME280;43810;50.860;19.226;2023-12-20T00:01:35;97965.69;;;5.34;100.00
58018;BME280;43810;50.860;19.226;2023-12-20T00:04:02;97963.97;;;5.29;100.00
58018;BME280;43810;50.860;19.226;2023-12-20T00:06:27;97962.09;;;5.30;100.00
58018;BME280;43810;50.860;19.226;2023-12-20T00:08:54;97966.47;;;5.26;100.00
58018;BME280;43810;50.860;19.226;2023-12-20T00:11:19;97958.09;;;5.32;100.00
58018;BME280;43810;50.860;19.226;2023-12-20T00:13:45;97958.56;;;5.26;100.00
58018;BME280;43810;50.860;19.226;2023-12-20T00:16:11;97951.72;;;5.25;100.00
58018;BME280;43810;50.860;19.226;2023-12-20T00:18:37;97944.59;;;5.25;100.00
58018;BME280;43810;50.860;19.226;2023-12-20T00:21:02;97946.91;;;5.18;100.00
58018;BME280;43810;50.860;19.226;2023-12-20T00:23:29;97941.03;;;5.21;100.00
58018;BME280;43810;50.860;19.226;2023-12-20T00:25:55;97939.94;;;5.31;100.00
58018;BME280;43810;50.860;19.226;2023-12-20T00:28:21;97937.16;;;5.19;100.00
58018;BME280;43810;50.860;19.226;2023-12-20T00:30:46;97947.69;;;5.19;100.00
58018;BME280;43810;50.860;19.226;2023-12-20T00:33:12;97942.72;;;5.09;100.00
58018;BME280;43810;50.860;19.226;2023-12-20T00:35:38;97932.81;;;5.14;100.00
58018;BME280;43810;50.860;19.226;2023-12-20T00:38:04;97933.25;;;5.16;100.00
58018;BME280;43810;50.860;19.226;2023-12-20T00:40:30;97921.22;;;5.15;100.00
58018;BME280;43810;50.860;19.226;2023-12-20T00:42:56;97932.19;;;5.17;100.00
58018;BME280;43810;50.860;19.226;2023-12-20T00:45:22;97934.38;;;5.15;100.00
58018;BME280;43810;50.860;19.226;2023-12-20T00:47:48;97936.53;;;5.13;100.00
58018;BME280;43810;50.860;19.226;2023-12-20T00:50:13;97939.47;;;5.12;100.00
58018;BME280;43810;50.860;19.226;2023-12-20T00:52:39;97929.84;;;5.16;100.00
58018;BME280;43810;50.860;19.226;2023-12-20T00:55:05;97936.06;;;5.20;100.00
58018;BME280;43810;50.860;19.226;2023-12-20T00:57:31;97912.97;;;5.17;100.00
58018;BME280;43810;50.860;19.226;2023-12-20T00:59:57;97917.63;;;5.11;100.00
58018;BME280;43810;50.860;19.226;2023-12-20T01:02:23;97908.78;;;5.16;100.00
58018;BME280;43810;50.860;19.226;2023-12-20T01:04:48;97906.03;;;5.12;100.00
58018;BME280;43810;50.860;19.226;2023-12-20T01:07:14;97907.28;;;5.15;100.00
58018;BME280;43810;50.860;19.226;2023-12-20T01:09:40;97899.19;;;5.11;100.00
58018;BME280;43810;50.860;19.226;2023-12-20T01:12:06;97904.31;;;5.16;100.00
58018;BME280;43810;50.860;19.226;2023-12-20T01:14:31;97899.03;;;5.08;100.00
58018;BME280;43810;50.860;19.226;2023-12-20T01:16:57;97895.31;;;5.09;100.00
58018;BME280;43810;50.860;19.226;2023-12-20T01:19:24;97891.91;;;5.17;100.00
58018;BME280;43810;50.860;19.226;2023-12-20T01:21:50;97888.84;;;5.15;100.00
58018;BME280;43810;50.860;19.226;2023-12-20T01:24:16;97893.78;;;5.16;100.00
58018;BME280;43810;50.860;19.226;2023-12-20T01:26:42;97891.59;;;5.10;100.00
58018;BME280;43810;50.860;19.226;2023-12-20T01:29:07;97885.09;;;5.07;100.00
58018;BME280;43810;50.860;19.226;2023-12-20T01:31:33;97864.97;;;5.11;100.00
58018;BME280;43810;50.860;19.226;2023-12-20T01:33:59;97858.16;;;5.10;100.00
58018;BME280;43810;50.860;19.226;2023-12-20T01:36:24;97859.88;;;5.15;100.00
58018;BME280;43810;50.860;19.226;2023-12-20T01:38:50;97856.13;;;5.16;100.00
58018;BME280;43810;50.860;19.226;2023-12-20T01:41:16;97841.13;;;5.33;100.00
58018;BME280;43810;50.860;19.226;2023-12-20T01:43:41;97842.81;;;5.21;100.00
58018;BME280;43810;50.860;19.226;2023-12-20T01:46:07;97831.34;;;5.17;100.00
58018;BME280;43810;50.860;19.226;2023-12-20T01:48:33;97818.81;;;5.22;100.00
58018;BME280;43810;50.860;19.226;2023-12-20T01:51:02;97816.03;;;5.19;100.00
58018;BME280;43810;50.860;19.226;2023-12-20T01:53:28;97815.25;;;5.10;100.00
58018;BME280;43810;50.860;19.226;2023-12-20T01:55:56;97816.19;;;5.14;100.00
58018;BME280;43810;50.860;19.226;2023-12-20T01:58:23;97824.22;;;5.17;100.00
58018;BME280;43810;50.860;19.226;2023-12-20T02:00:50;97826.25;;;5.20;100.00
58018;BME280;43810;50.860;19.226;2023-12-20T02:03:16;97825.00;;;5.18;100.00
58018;BME280;43810;50.860;19.226;2023-12-20T02:05:44;97825.94;;;5.13;100.00
58018;BME280;43810;50.860;19.226;2023-12-20T02:08:09;97828.28;;;5.15;100.00
58018;BME280;43810;50.860;19.226;2023-12-20T02:10:35;97832.91;;;5.18;100.00
58018;BME280;43810;50.860;19.226;2023-12-20T02:13:01;97829.81;;;5.16;100.00
58018;BME280;43810;50.860;19.226;2023-12-20T02:15:27;97814.00;;;5.07;100.00
58018;BME280;43810;50.860;19.226;2023-12-20T02:17:53;97810.31;;;5.08;100.00
58018;BME280;43810;50.860;19.226;2023-12-20T02:20:19;97818.97;;;5.09;100.00
58018;BME280;43810;50.860;19.226;2023-12-20T02:22:45;97801.78;;;5.11;100.00
58018;BME280;43810;50.860;19.226;2023-12-20T02:25:11;97799.00;;;5.08;100.00
58018;BME280;43810;50.860;19.226;2023-12-20T02:27:36;97793.91;;;5.03;100.00
58018;BME280;43810;50.860;19.226;2023-12-20T02:30:03;97789.88;;;4.96;100.00
58018;BME280;43810;50.860;19.226;2023-12-20T02:32:28;97784.59;;;4.96;100.00
58018;BME280;43810;50.860;19.226;2023-12-20T02:34:54;97780.56;;;4.99;100.00
58018;BME280;43810;50.860;19.226;2023-12-20T02:37:20;97776.88;;;5.00;100.00
58018;BME280;43810;50.860;19.226;2023-12-20T02:39:46;97783.81;;;4.96;100.00
58018;BME280;43810;50.860;19.226;2023-12-20T02:42:12;97793.91;;;5.03;100.00
58018;BME280;43810;50.860;19.226;2023-12-20T02:44:38;97785.69;;;4.95;100.00
58018;BME280;43810;50.860;19.226;2023-12-20T02:47:03;97783.03;;;4.95;100.00
58018;BME280;43810;50.860;19.226;2023-12-20T02:49:29;97795.44;;;5.04;100.00
58018;BME280;43810;50.860;19.226;2023-12-20T02:51:55;97783.81;;;5.05;100.00
58018;BME280;43810;50.860;19.226;2023-12-20T02:54:21;97799.78;;;5.08;100.00
58018;BME280;43810;50.860;19.226;2023-12-20T02:56:47;97793.25;;;5.06;100.00
58018;BME280;43810;50.860;19.226;2023-12-20T02:59:13;97797.44;;;5.07;100.00
58018;BME280;43810;50.860;19.226;2023-12-20T03:01:43;97796.06;;;5.09;100.00
58018;BME280;43810;50.860;19.226;2023-12-20T03:04:10;97789.25;;;5.08;100.00
58018;BME280;43810;50.860;19.226;2023-12-20T03:06:35;97787.38;;;5.09;100.00
58018;BME280;43810;50.860;19.226;2023-12-20T03:09:01;97785.66;;;5.04;100.00
58018;BME280;43810;50.860;19.226;2023-12-20T03:11:27;97782.41;;;5.07;100.00
58018;BME280;43810;50.860;19.226;2023-12-20T03:13:56;97792.03;;;5.12;100.00
58018;BME280;43810;50.860;19.226;2023-12-20T03:16:22;97785.22;;;5.11;100.00
58018;BME280;43810;50.860;19.226;2023-12-20T03:18:49;97786.75;;;5.12;100.00
58018;BME280;43810;50.860;19.226;2023-12-20T03:21:14;97782.56;;;5.19;100.00
58018;BME280;43810;50.860;19.226;2023-12-20T03:23:40;97783.47;;;5.32;100.00
58018;BME280;43810;50.860;19.226;2023-12-20T03:26:09;97786.25;;;5.27;100.00
58018;BME280;43810;50.860;19.226;2023-12-20T03:28:38;97783.63;;;5.27;100.00
58018;BME280;43810;50.860;19.226;2023-12-20T03:31:04;97783.00;;;5.30;100.00
58018;BME280;43810;50.860;19.226;2023-12-20T03:33:30;97781.34;;;5.25;100.00
58018;BME280;43810;50.860;19.226;2023-12-20T03:35:55;97777.13;;;5.33;100.00
58018;BME280;43810;50.860;19.226;2023-12-20T03:38:22;97782.69;;;5.40;100.00
58018;BME280;43810;50.860;19.226;2023-12-20T03:40:49;97772.78;;;5.37;100.00
58018;BME280;43810;50.860;19.226;2023-12-20T03:43:15;97778.50;;;5.39;100.00
58018;BME280;43810;50.860;19.226;2023-12-20T03:45:42;97777.88;;;5.42;100.00
58018;BME280;43810;50.860;19.226;2023-12-20T03:48:08;97775.25;;;5.42;100.00
58018;BME280;43810;50.860;19.226;2023-12-20T03:50:34;97778.81;;;5.46;100.00
58018;BME280;43810;50.860;19.226;2023-12-20T03:53:00;97783.91;;;5.51;100.00
58018;BME280;43810;50.860;19.226;2023-12-20T03:55:26;97775.56;;;5.49;100.00
58018;BME280;43810;50.860;19.226;2023-12-20T03:57:52;97778.97;;;5.41;100.00
58018;BME280;43810;50.860;19.226;2023-12-20T04:00:17;97778.06;;;5.37;100.00
58018;BME280;43810;50.860;19.226;2023-12-20T04:02:43;97776.84;;;5.26;100.00
58018;BME280;43810;50.860;19.226;2023-12-20T04:05:09;97780.25;;;5.26;100.00
58018;BME280;43810;50.860;19.226;2023-12-20T04:07:36;97771.88;;;5.24;100.00
58018;BME280;43810;50.860;19.226;2023-12-20T04:10:02;97777.28;;;5.28;100.00
58018;BME280;43810;50.860;19.226;2023-12-20T04:12:29;97783.50;;;5.23;100.00
58018;BME280;43810;50.860;19.226;2023-12-20T04:14:56;97777.28;;;5.28;100.00
58018;BME280;43810;50.860;19.226;2023-12-20T04:17:22;97776.38;;;5.24;100.00
58018;BME280;43810;50.860;19.226;2023-12-20T04:19:51;97778.53;;;5.22;100.00
58018;BME280;43810;50.860;19.226;2023-12-20T04:22:18;97774.97;;;5.26;100.00
58018;BME280;43810;50.860;19.226;2023-12-20T04:24:44;97767.38;;;5.33;100.00
58018;BME280;43810;50.860;19.226;2023-12-20T04:27:10;97761.81;;;5.26;100.00
58018;BME280;43810;50.860;19.226;2023-12-20T04:29:36;97765.53;;;5.25;100.00
58018;BME280;43810;50.860;19.226;2023-12-20T04:32:02;97764.75;;;5.25;100.00
58018;BME280;43810;50.860;19.226;2023-12-20T04:34:27;97757.31;;;5.18;100.00
58018;BME280;43810;50.860;19.226;2023-12-20T04:36:53;97759.94;;;5.18;100.00
58018;BME280;43810;50.860;19.226;2023-12-20T04:39:19;97766.75;;;5.19;100.00
58018;BME280;43810;50.860;19.226;2023-12-20T04:41:45;97754.84;;;5.22;100.00
58018;BME280;43810;50.860;19.226;2023-12-20T04:44:13;97759.94;;;5.18;100.00
58018;BME280;43810;50.860;19.226;2023-12-20T04:46:39;97768.94;;;5.17;100.00
58018;BME280;43810;50.860;19.226;2023-12-20T04:49:04;97770.34;;;5.23;100.00
58018;BME280;43810;50.860;19.226;2023-12-20T04:51:33;97774.03;;;5.31;100.00
58018;BME280;43810;50.860;19.226;2023-12-20T04:53:59;97777.59;;;5.35;100.00
58018;BME280;43810;50.860;19.226;2023-12-20T04:56:25;97778.50;;;5.39;100.00
58018;BME280;43810;50.860;19.226;2023-12-20T04:58:50;97766.44;;;5.38;100.00
58018;BME280;43810;50.860;19.226;2023-12-20T05:01:16;97773.09;;;5.27;100.00
58018;BME280;43810;50.860;19.226;2023-12-20T05:03:42;97779.91;;;5.28;100.00
58018;BME280;43810;50.860;19.226;2023-12-20T05:06:09;97778.38;;;5.27;100.00
58018;BME280;43810;50.860;19.226;2023-12-20T05:08:35;97772.19;;;5.23;100.00
58018;BME280;43810;50.860;19.226;2023-12-20T05:11:01;97768.78;;;5.22;100.00
58018;BME280;43810;50.860;19.226;2023-12-20T05:13:27;97772.00;;;5.28;100.00
58018;BME280;43810;50.860;19.226;2023-12-20T05:15:53;97757.75;;;5.38;100.00
58018;BME280;43810;50.860;19.226;2023-12-20T05:18:19;97774.34;;;5.38;100.00
58018;BME280;43810;50.860;19.226;2023-12-20T05:20:45;97774.28;;;5.55;100.00
58018;BME280;43810;50.860;19.226;2023-12-20T05:23:11;97778.19;;;5.41;100.00
58018;BME280;43810;50.860;19.226;2023-12-20T05:25:39;97776.78;;;5.43;100.00
58018;BME280;43810;50.860;19.226;2023-12-20T05:28:04;97768.91;;;5.34;100.00
58018;BME280;43810;50.860;19.226;2023-12-20T05:30:31;97770.00;;;5.33;100.00
58018;BME280;43810;50.860;19.226;2023-12-20T05:32:56;97771.56;;;5.34;100.00
58018;BME280;43810;50.860;19.226;2023-12-20T05:35:22;97771.88;;;5.33;100.00
58018;BME280;43810;50.860;19.226;2023-12-20T05:37:49;97774.66;;;5.36;100.00
58018;BME280;43810;50.860;19.226;2023-12-20T05:40:15;97764.44;;;5.35;100.00
58018;BME280;43810;50.860;19.226;2023-12-20T05:42:41;97760.41;;;5.38;100.00
58018;BME280;43810;50.860;19.226;2023-12-20T05:45:07;97757.59;;;5.34;100.00
58018;BME280;43810;50.860;19.226;2023-12-20T05:47:32;97762.72;;;5.30;100.00
58018;BME280;43810;50.860;19.226;2023-12-20T05:49:58;97766.13;;;5.31;100.00
58018;BME280;43810;50.860;19.226;2023-12-20T05:52:24;97759.03;;;5.23;100.00
58018;BME280;43810;50.860;19.226;2023-12-20T05:54:50;97751.13;;;5.23;100.00
58018;BME280;43810;50.860;19.226;2023-12-20T05:57:15;97752.22;;;5.22;100.00
58018;BME280;43810;50.860;19.226;2023-12-20T05:59:41;97750.03;;;5.24;100.00
58018;BME280;43810;50.860;19.226;2023-12-20T06:02:07;97745.25;;;5.26;100.00
58018;BME280;43810;50.860;19.226;2023-12-20T06:04:33;97748.47;;;5.31;100.00
58018;BME280;43810;50.860;19.226;2023-12-20T06:07:00;97737.34;;;5.26;100.00
58018;BME280;43810;50.860;19.226;2023-12-20T06:09:28;97735.31;;;5.23;100.00
58018;BME280;43810;50.860;19.226;2023-12-20T06:11:55;97741.06;;;5.25;100.00
58018;BME280;43810;50.860;19.226;2023-12-20T06:14:20;97739.81;;;5.22;100.00
58018;BME280;43810;50.860;19.226;2023-12-20T06:16:46;97751.38;;;5.38;100.00
58018;BME280;43810;50.860;19.226;2023-12-20T06:19:12;97751.56;;;5.33;100.00
58018;BME280;43810;50.860;19.226;2023-12-20T06:21:38;97751.72;;;5.28;100.00
58018;BME280;43810;50.860;19.226;2023-12-20T06:24:04;97749.28;;;5.15;100.00
58018;BME280;43810;50.860;19.226;2023-12-20T06:26:30;97751.13;;;5.06;100.00
58018;BME280;43810;50.860;19.226;2023-12-20T06:28:56;97751.47;;;5.13;100.00
58018;BME280;43810;50.860;19.226;2023-12-20T06:31:21;97752.22;;;5.22;100.00
58018;BME280;43810;50.860;19.226;2023-12-20T06:33:47;97760.25;;;5.17;100.00
58018;BME280;43810;50.860;19.226;2023-12-20T06:36:15;97756.84;;;5.16;100.00
58018;BME280;43810;50.860;19.226;2023-12-20T06:38:40;97762.59;;;5.18;100.00
58018;BME280;43810;50.860;19.226;2023-12-20T06:41:07;97767.72;;;5.06;100.00
58018;BME280;43810;50.860;19.226;2023-12-20T06:43:33;97776.69;;;5.05;100.00
58018;BME280;43810;50.860;19.226;2023-12-20T06:46:02;97770.50;;;5.10;100.00
58018;BME280;43810;50.860;19.226;2023-12-20T06:48:28;97757.19;;;5.06;100.00
58018;BME280;43810;50.860;19.226;2023-12-20T06:50:53;97753.00;;;4.96;100.00
58018;BME280;43810;50.860;19.226;2023-12-20T06:53:19;97762.59;;;4.92;100.00
58018;BME280;43810;50.860;19.226;2023-12-20T06:55:45;97761.84;;;4.92;100.00
58018;BME280;43810;50.860;19.226;2023-12-20T06:58:11;97763.38;;;4.93;100.00
58018;BME280;43810;50.860;19.226;2023-12-20T07:00:36;97769.88;;;4.95;100.00
58018;BME280;43810;50.860;19.226;2023-12-20T07:03:02;97780.88;;;4.89;100.00
58018;BME280;43810;50.860;19.226;2023-12-20T07:05:29;97779.34;;;4.96;100.00
58018;BME280;43810;50.860;19.226;2023-12-20T07:07:55;97789.22;;;4.82;100.00
58018;BME280;43810;50.860;19.226;2023-12-20T07:10:20;97784.44;;;4.84;100.00
58018;BME280;43810;50.860;19.226;2023-12-20T07:12:46;97784.91;;;4.86;100.00
58018;BME280;43810;50.860;19.226;2023-12-20T07:15:14;97787.69;;;4.81;100.00
58018;BME280;43810;50.860;19.226;2023-12-20T07:17:40;97785.38;;;4.80;100.00
58018;BME280;43810;50.860;19.226;2023-12-20T07:20:06;97791.44;;;4.80;100.00
58018;BME280;43810;50.860;19.226;2023-12-20T07:22:35;97786.91;;;4.72;100.00
58018;BME280;43810;50.860;19.226;2023-12-20T07:25:01;97791.72;;;4.79;100.00
58018;BME280;43810;50.860;19.226;2023-12-20T07:27:27;97799.75;;;4.82;100.00
58018;BME280;43810;50.860;19.226;2023-12-20T07:29:52;97800.84;;;4.98;100.00
58018;BME280;43810;50.860;19.226;2023-12-20T07:32:18;97794.34;;;4.96;100.00
58018;BME280;43810;50.860;19.226;2023-12-20T07:34:44;97793.13;;;4.85;100.00
58018;BME280;43810;50.860;19.226;2023-12-20T07:37:10;97797.28;;;4.77;100.00
58018;BME280;43810;50.860;19.226;2023-12-20T07:39:40;97797.28;;;4.77;100.00
58018;BME280;43810;50.860;19.226;2023-12-20T07:42:09;97795.75;;;4.93;100.00
58018;BME280;43810;50.860;19.226;2023-12-20T07:44:35;97793.25;;;4.71;100.00
58018;BME280;43810;50.860;19.226;2023-12-20T07:47:04;97794.81;;;4.72;100.00
58018;BME280;43810;50.860;19.226;2023-12-20T07:49:31;97791.88;;;4.65;100.00
58018;BME280;43810;50.860;19.226;2023-12-20T07:51:57;97783.34;;;4.59;100.00
58018;BME280;43810;50.860;19.226;2023-12-20T07:54:23;97790.78;;;4.66;100.00
58018;BME280;43810;50.860;19.226;2023-12-20T07:56:49;97793.25;;;4.54;100.00
58018;BME280;43810;50.860;19.226;2023-12-20T07:59:14;97793.09;;;4.59;100.00
58018;BME280;43810;50.860;19.226;2023-12-20T08:01:40;97797.44;;;4.63;100.00
58018;BME280;43810;50.860;19.226;2023-12-20T08:04:06;97789.25;;;4.65;100.00
58018;BME280;43810;50.860;19.226;2023-12-20T08:06:32;97786.75;;;4.60;100.00
58018;BME280;43810;50.860;19.226;2023-12-20T08:08:57;97793.25;;;4.54;100.00
58018;BME280;43810;50.860;19.226;2023-12-20T08:11:23;97788.16;;;4.57;100.00
58018;BME280;43810;50.860;19.226;2023-12-20T08:13:49;97795.28;;;4.57;100.00
58018;BME280;43810;50.860;19.226;2023-12-20T08:16:14;97801.75;;;4.51;100.00
58018;BME280;43810;50.860;19.226;2023-12-20T08:18:43;97794.94;;;4.50;100.00
58018;BME280;43810;50.860;19.226;2023-12-20T08:21:09;97796.31;;;4.47;100.00
58018;BME280;43810;50.860;19.226;2023-12-20T08:23:35;97787.34;;;4.40;100.00
58018;BME280;43810;50.860;19.226;2023-12-20T08:26:08;97793.53;;;4.44;100.00
58018;BME280;43810;50.860;19.226;2023-12-20T08:28:34;97792.59;;;4.40;100.00
58018;BME280;43810;50.860;19.226;2023-12-20T08:31:00;97794.91;;;4.41;100.00
58018;BME280;43810;50.860;19.226;2023-12-20T08:33:26;97802.63;;;4.29;100.00
58018;BME280;43810;50.860;19.226;2023-12-20T08:35:52;97796.66;;;4.46;100.00
58018;BME280;43810;50.860;19.226;2023-12-20T08:38:17;97795.34;;;4.35;100.00
58018;BME280;43810;50.860;19.226;2023-12-20T08:40:44;97798.31;;;4.42;100.00
58018;BME280;43810;50.860;19.226;2023-12-20T08:43:10;97802.03;;;4.49;100.00
58018;BME280;43810;50.860;19.226;2023-12-20T08:45:36;97807.28;;;4.41;100.00
58018;BME280;43810;50.860;19.226;2023-12-20T08:48:02;97808.53;;;4.43;100.00
58018;BME280;43810;50.860;19.226;2023-12-20T08:50:29;97813.03;;;4.43;100.00
58018;BME280;43810;50.860;19.226;2023-12-20T08:52:54;97819.66;;;4.40;100.00
58018;BME280;43810;50.860;19.226;2023-12-20T08:55:20;97810.06;;;4.36;100.00
58018;BME280;43810;50.860;19.226;2023-12-20T08:57:46;97817.66;;;4.37;100.00
58018;BME280;43810;50.860;19.226;2023-12-20T09:00:12;97817.94;;;4.36;100.00
58018;BME280;43810;50.860;19.226;2023-12-20T09:02:38;97813.31;;;4.33;100.00
58018;BME280;43810;50.860;19.226;2023-12-20T09:05:04;97810.88;;;4.45;100.00
58018;BME280;43810;50.860;19.226;2023-12-20T09:07:31;97813.50;;;4.45;100.00
58018;BME280;43810;50.860;19.226;2023-12-20T09:09:58;97808.09;;;4.50;100.00
58018;BME280;43810;50.860;19.226;2023-12-20T09:12:24;97813.03;;;4.43;100.00
58018;BME280;43810;50.860;19.226;2023-12-20T09:14:51;97803.75;;;4.45;100.00
58018;BME280;43810;50.860;19.226;2023-12-20T09:17:17;97807.78;;;4.43;100.00
58018;BME280;43810;50.860;19.226;2023-12-20T09:19:43;97793.25;;;4.54;100.00
58018;BME280;43810;50.860;19.226;2023-12-20T09:22:10;97798.50;;;4.45;100.00
58018;BME280;43810;50.860;19.226;2023-12-20T09:24:36;97796.47;;;4.51;100.00
58018;BME280;43810;50.860;19.226;2023-12-20T09:27:02;97790.28;;;4.38;100.00
58018;BME280;43810;50.860;19.226;2023-12-20T09:29:28;97788.41;;;4.47;100.00
58018;BME280;43810;50.860;19.226;2023-12-20T09:31:54;97792.47;;;4.53;100.00
58018;BME280;43810;50.860;19.226;2023-12-20T09:34:20;97782.72;;;4.54;100.00
58018;BME280;43810;50.860;19.226;2023-12-20T09:36:46;97787.03;;;4.58;100.00
58018;BME280;43810;50.860;19.226;2023-12-20T09:39:13;97799.41;;;4.58;100.00
58018;BME280;43810;50.860;19.226;2023-12-20T09:41:43;97786.59;;;4.56;100.00
58018;BME280;43810;50.860;19.226;2023-12-20T09:44:15;97779.44;;;4.48;100.00
58018;BME280;43810;50.860;19.226;2023-12-20T09:46:44;97776.38;;;4.55;100.00
58018;BME280;43810;50.860;19.226;2023-12-20T09:49:13;97777.94;;;4.56;100.00
58018;BME280;43810;50.860;19.226;2023-12-20T09:51:39;97775.44;;;4.51;100.00
58018;BME280;43810;50.860;19.226;2023-12-20T09:54:06;97769.88;;;4.44;100.00
58018;BME280;43810;50.860;19.226;2023-12-20T09:56:31;97764.75;;;4.47;100.00
58018;BME280;43810;50.860;19.226;2023-12-20T09:58:59;97769.41;;;4.50;100.00
58018;BME280;43810;50.860;19.226;2023-12-20T10:01:25;97771.25;;;4.58;100.00
58018;BME280;43810;50.860;19.226;2023-12-20T10:03:54;97770.97;;;4.60;100.00
58018;BME280;43810;50.860;19.226;2023-12-20T10:06:21;97763.22;;;4.55;100.00
58018;BME280;43810;50.860;19.226;2023-12-20T10:08:46;97762.16;;;4.56;100.00
58018;BME280;43810;50.860;19.226;2023-12-20T10:11:12;97765.41;;;4.61;100.00
58018;BME280;43810;50.860;19.226;2023-12-20T10:13:40;97762.47;;;4.63;100.00
58018;BME280;43810;50.860;19.226;2023-12-20T10:16:07;97759.53;;;4.56;100.00
58018;BME280;43810;50.860;19.226;2023-12-20T10:18:35;97759.97;;;4.58;100.00
58018;BME280;43810;50.860;19.226;2023-12-20T10:21:01;97757.97;;;4.63;100.00
58018;BME280;43810;50.860;19.226;2023-12-20T10:23:29;97755.03;;;4.65;100.00
58018;BME280;43810;50.860;19.226;2023-12-20T10:25:59;97760.91;;;4.62;100.00
58018;BME280;43810;50.860;19.226;2023-12-20T10:28:26;97759.53;;;4.64;100.00
58018;BME280;43810;50.860;19.226;2023-12-20T10:30:54;97762.16;;;4.56;100.00
58018;BME280;43810;50.860;19.226;2023-12-20T10:33:24;97744.03;;;4.63;100.00
58018;BME280;43810;50.860;19.226;2023-12-20T10:35:52;97742.31;;;4.58;100.00
58018;BME280;43810;50.860;19.226;2023-12-20T10:38:18;97757.03;;;4.59;100.00
58018;BME280;43810;50.860;19.226;2023-12-20T10:40:47;97766.47;;;4.60;100.00
58018;BME280;43810;50.860;19.226;2023-12-20T10:43:14;97771.28;;;4.67;100.00
58018;BME280;43810;50.860;19.226;2023-12-20T10:45:42;97766.81;;;4.68;100.00
58018;BME280;43810;50.860;19.226;2023-12-20T10:48:11;97756.72;;;4.61;100.00
58018;BME280;43810;50.860;19.226;2023-12-20T10:50:37;97768.50;;;4.63;100.00
58018;BME280;43810;50.860;19.226;2023-12-20T10:53:04;97763.88;;;4.69;100.00
58018;BME280;43810;50.860;19.226;2023-12-20T10:55:30;97751.63;;;4.64;100.00
58018;BME280;43810;50.860;19.226;2023-12-20T10:58:04;97756.41;;;4.71;100.00
58018;BME280;43810;50.860;19.226;2023-12-20T11:00:32;97754.44;;;4.68;100.00
58018;BME280;43810;50.860;19.226;2023-12-20T11:03:00;97755.47;;;4.58;100.00
58018;BME280;43810;50.860;19.226;2023-12-20T11:05:49;97757.34;;;4.75;100.00
58018;BME280;43810;50.860;19.226;2023-12-20T11:08:32;97757.06;;;4.68;100.00
58018;BME280;43810;50.860;19.226;2023-12-20T11:11:14;97749.00;;;4.73;100.00
58018;BME280;43810;50.860;19.226;2023-12-20T11:13:54;97749.16;;;4.68;100.00
58018;BME280;43810;50.860;19.226;2023-12-20T11:16:21;97750.25;;;4.67;100.00
58018;BME280;43810;50.860;19.226;2023-12-20T11:18:46;97747.91;;;4.66;100.00
58018;BME280;43810;50.860;19.226;2023-12-20T11:21:12;97746.84;;;4.67;100.00
58018;BME280;43810;50.860;19.226;2023-12-20T11:23:42;97738.78;;;4.63;100.00
58018;BME280;43810;50.860;19.226;2023-12-20T11:26:08;97746.84;;;4.75;100.00
58018;BME280;43810;50.860;19.226;2023-12-20T11:28:33;97740.97;;;4.78;100.00
58018;BME280;43810;50.860;19.226;2023-12-20T11:31:01;97742.81;;;4.86;100.00
58018;BME280;43810;50.860;19.226;2023-12-20T11:33:35;97747.59;;;4.84;100.00
58018;BME280;43810;50.860;19.226;2023-12-20T11:36:01;97750.22;;;4.84;100.00
58018;BME280;43810;50.860;19.226;2023-12-20T11:38:38;97741.25;;;4.85;100.00
58018;BME280;43810;50.860;19.226;2023-12-20T11:41:07;97742.50;;;4.71;100.00
58018;BME280;43810;50.860;19.226;2023-12-20T11:43:36;97731.19;;;4.70;100.00
58018;BME280;43810;50.860;19.226;2023-12-20T11:46:06;97736.91;;;4.72;100.00
58018;BME280;43810;50.860;19.226;2023-12-20T11:48:34;97737.56;;;4.69;100.00
58018;BME280;43810;50.860;19.226;2023-12-20T11:51:00;97736.28;;;4.84;100.00
58018;BME280;43810;50.860;19.226;2023-12-20T11:53:26;97743.13;;;4.76;100.00
58018;BME280;43810;50.860;19.226;2023-12-20T11:55:54;97734.75;;;4.74;100.00
58018;BME280;43810;50.860;19.226;2023-12-20T11:58:20;97744.03;;;4.72;100.00
58018;BME280;43810;50.860;19.226;2023-12-20T12:00:45;97743.41;;;4.83;100.00
58018;BME280;43810;50.860;19.226;2023-12-20T12:03:14;97729.97;;;4.76;100.00
58018;BME280;43810;50.860;19.226;2023-12-20T12:05:41;97723.00;;;4.72;100.00
58018;BME280;43810;50.860;19.226;2023-12-20T12:08:07;97717.59;;;4.77;100.00
58018;BME280;43810;50.860;19.226;2023-12-20T12:10:33;97713.25;;;4.72;100.00
58018;BME280;43810;50.860;19.226;2023-12-20T12:12:59;97722.69;;;4.73;100.00
58018;BME280;43810;50.860;19.226;2023-12-20T12:15:26;97719.88;;;4.70;100.00
58018;BME280;43810;50.860;19.226;2023-12-20T12:17:56;97725.16;;;4.61;100.00
58018;BME280;43810;50.860;19.226;2023-12-20T12:20:23;97725.63;;;4.54;100.00
58018;BME280;43810;50.860;19.226;2023-12-20T12:22:59;97732.56;;;4.59;100.00
58018;BME280;43810;50.860;19.226;2023-12-20T12:25:25;97720.66;;;4.61;100.00
58018;BME280;43810;50.860;19.226;2023-12-20T12:27:51;97723.47;;;4.65;100.00
58018;BME280;43810;50.860;19.226;2023-12-20T12:30:17;97720.50;;;4.58;100.00
58018;BME280;43810;50.860;19.226;2023-12-20T12:32:44;97716.78;;;4.59;100.00
58018;BME280;43810;50.860;19.226;2023-12-20T12:35:10;97710.63;;;4.55;100.00
58018;BME280;43810;50.860;19.226;2023-12-20T12:37:40;97706.28;;;4.59;100.00
58018;BME280;43810;50.860;19.226;2023-12-20T12:40:09;97724.84;;;4.54;100.00
58018;BME280;43810;50.860;19.226;2023-12-20T12:42:36;97725.78;;;4.58;100.00
58018;BME280;43810;50.860;19.226;2023-12-20T12:45:02;97720.84;;;4.65;100.00
58018;BME280;43810;50.860;19.226;2023-12-20T12:47:28;97722.22;;;4.62;100.00